createdAt,value
2022-08-29T00:00:49.511Z,100.00
2022-08-29T00:03:18.344Z,100.00
2022-08-29T00:05:50.256Z,100.00
2022-08-29T00:08:18.202Z,100.00
2022-08-29T00:10:45.690Z,100.00
2022-08-29T00:13:14.482Z,100.00
2022-08-29T00:15:44.643Z,100.00
2022-08-29T00:18:13.700Z,100.00
2022-08-29T00:20:41.153Z,100.00
2022-08-29T00:23:08.291Z,100.00
2022-08-29T00:25:35.225Z,100.00
2022-08-29T00:28:02.785Z,100.00
2022-08-29T00:30:29.968Z,100.00
2022-08-29T00:32:56.776Z,100.00
2022-08-29T00:35:27.727Z,100.00
2022-08-29T00:37:55.114Z,100.00
2022-08-29T00:40:40.465Z,100.00
2022-08-29T00:43:08.560Z,100.00
2022-08-29T00:45:38.615Z,100.00
2022-08-29T00:48:10.647Z,100.00
2022-08-29T00:50:52.072Z,100.00
2022-08-29T00:53:28.029Z,100.00
2022-08-29T00:55:55.557Z,100.00
2022-08-29T00:58:28.679Z,100.00
2022-08-29T01:00:55.971Z,100.00
2022-08-29T01:03:22.991Z,100.00
2022-08-29T01:05:49.842Z,100.00
2022-08-29T01:08:16.748Z,100.00
2022-08-29T01:11:02.751Z,100.00
2022-08-29T01:13:36.705Z,100.00
2022-08-29T01:16:03.884Z,100.00
2022-08-29T01:18:34.382Z,100.00
2022-08-29T01:21:13.664Z,100.00
2022-08-29T01:23:55.010Z,100.00
2022-08-29T01:26:23.187Z,100.00
2022-08-29T01:28:53.486Z,100.00
2022-08-29T01:31:56.087Z,100.00
2022-08-29T01:34:26.450Z,100.00
2022-08-29T01:36:56.412Z,100.00
2022-08-29T01:39:26.675Z,100.00
2022-08-29T01:41:54.246Z,100.00
2022-08-29T01:44:25.473Z,100.00
2022-08-29T01:46:59.114Z,100.00
2022-08-29T01:49:29.142Z,100.00
2022-08-29T01:51:55.802Z,100.00
2022-08-29T01:54:22.687Z,100.00
2022-08-29T01:56:52.275Z,100.00
2022-08-29T01:59:23.136Z,100.00
2022-08-29T02:01:57.364Z,100.00
2022-08-29T02:04:25.469Z,100.00
2022-08-29T02:06:52.651Z,100.00
2022-08-29T02:09:19.860Z,100.00
2022-08-29T02:11:48.343Z,100.00
2022-08-29T02:14:19.369Z,100.00
2022-08-29T02:16:47.454Z,100.00
2022-08-29T02:19:14.819Z,100.00
2022-08-29T02:21:41.614Z,100.00
2022-08-29T02:24:24.569Z,100.00
2022-08-29T02:26:52.370Z,100.00
2022-08-29T02:29:19.098Z,100.00
2022-08-29T02:31:45.846Z,100.00
2022-08-29T02:34:13.149Z,100.00
2022-08-29T02:36:41.517Z,100.00
2022-08-29T02:39:09.908Z,100.00
2022-08-29T02:41:38.854Z,100.00
2022-08-29T02:44:06.005Z,100.00
2022-08-29T02:46:33.191Z,100.00
2022-08-29T02:49:01.027Z,100.00
2022-08-29T02:51:31.310Z,100.00
2022-08-29T02:53:58.794Z,100.00
2022-08-29T02:56:26.289Z,100.00
2022-08-29T02:58:53.187Z,100.00
2022-08-29T03:01:21.727Z,100.00
2022-08-29T03:03:50.442Z,100.00
2022-08-29T03:06:18.753Z,100.00
2022-08-29T03:08:46.087Z,100.00
2022-08-29T03:11:12.920Z,100.00
2022-08-29T03:13:39.687Z,100.00
2022-08-29T03:16:06.461Z,100.00
2022-08-29T03:18:33.402Z,100.00
2022-08-29T03:21:00.088Z,100.00
2022-08-29T03:23:27.624Z,100.00
2022-08-29T03:25:55.044Z,100.00
2022-08-29T03:28:21.923Z,100.00
2022-08-29T03:30:49.045Z,100.00
2022-08-29T03:33:15.802Z,100.00
2022-08-29T03:35:43.023Z,100.00
2022-08-29T03:38:10.143Z,100.00
2022-08-29T03:40:37.197Z,100.00
2022-08-29T03:43:03.982Z,100.00
2022-08-29T03:45:30.834Z,100.00
2022-08-29T03:47:57.646Z,100.00
2022-08-29T03:50:24.651Z,100.00
2022-08-29T03:52:51.604Z,100.00
2022-08-29T03:55:19.660Z,100.00
2022-08-29T03:57:46.536Z,100.00
2022-08-29T04:00:16.956Z,100.00
2022-08-29T04:02:46.289Z,100.00
2022-08-29T04:05:14.694Z,100.00
2022-08-29T04:08:00.301Z,100.00
2022-08-29T04:10:33.156Z,100.00
2022-08-29T04:13:00.902Z,100.00
2022-08-29T04:15:29.460Z,100.00
2022-08-29T04:18:00.016Z,100.00
2022-08-29T04:20:30.746Z,100.00
2022-08-29T04:22:59.466Z,100.00
2022-08-29T04:25:28.596Z,100.00
2022-08-29T04:27:56.252Z,100.00
2022-08-29T04:30:24.981Z,100.00
2022-08-29T04:32:51.716Z,100.00
2022-08-29T04:35:18.502Z,100.00
2022-08-29T04:37:45.459Z,100.00
2022-08-29T04:40:15.909Z,100.00
2022-08-29T04:42:43.471Z,100.00
2022-08-29T04:45:13.273Z,100.00
2022-08-29T04:47:41.336Z,100.00
2022-08-29T04:50:11.778Z,100.00
2022-08-29T04:52:39.200Z,100.00
2022-08-29T04:55:07.382Z,100.00
2022-08-29T04:57:35.176Z,100.00
2022-08-29T05:00:02.762Z,100.00
2022-08-29T05:02:29.570Z,100.00
2022-08-29T05:04:56.894Z,100.00
2022-08-29T05:07:26.379Z,100.00
2022-08-29T05:09:58.918Z,100.00
2022-08-29T05:12:28.857Z,100.00
2022-08-29T05:14:55.748Z,100.00
2022-08-29T05:17:23.745Z,100.00
2022-08-29T05:19:50.740Z,100.00
2022-08-29T05:22:19.894Z,100.00
2022-08-29T05:24:48.024Z,100.00
2022-08-29T05:27:20.783Z,100.00
2022-08-29T05:29:48.934Z,100.00
2022-08-29T05:32:16.115Z,100.00
2022-08-29T05:34:44.149Z,100.00
2022-08-29T05:37:14.955Z,100.00
2022-08-29T05:39:42.814Z,100.00
2022-08-29T05:42:11.960Z,100.00
2022-08-29T05:44:40.553Z,100.00
2022-08-29T05:47:10.976Z,100.00
2022-08-29T05:49:39.565Z,100.00
2022-08-29T05:52:07.121Z,100.00
2022-08-29T05:54:35.994Z,100.00
2022-08-29T05:57:03.606Z,100.00
2022-08-29T05:59:30.479Z,100.00
2022-08-29T06:01:57.632Z,100.00
2022-08-29T06:04:24.438Z,100.00
2022-08-29T06:06:51.132Z,100.00
2022-08-29T06:09:18.176Z,100.00
2022-08-29T06:11:50.459Z,100.00
2022-08-29T06:14:17.531Z,100.00
2022-08-29T06:16:44.344Z,100.00
2022-08-29T06:19:12.208Z,100.00
2022-08-29T06:21:39.180Z,100.00
2022-08-29T06:24:06.574Z,100.00
2022-08-29T06:26:33.910Z,100.00
2022-08-29T06:29:00.994Z,100.00
2022-08-29T06:31:29.601Z,100.00
2022-08-29T06:34:01.622Z,100.00
2022-08-29T06:36:29.903Z,100.00
2022-08-29T06:38:58.244Z,100.00
2022-08-29T06:41:25.582Z,100.00
2022-08-29T06:43:53.230Z,100.00
2022-08-29T06:46:26.543Z,100.00
2022-08-29T06:48:54.015Z,100.00
2022-08-29T06:51:21.722Z,100.00
2022-08-29T06:53:48.694Z,100.00
2022-08-29T06:56:16.418Z,100.00
2022-08-29T06:58:43.465Z,99.46
2022-08-29T07:01:17.587Z,99.54
2022-08-29T07:03:45.073Z,99.09
2022-08-29T07:06:12.504Z,99.97
2022-08-29T07:08:54.761Z,100.00
2022-08-29T07:11:24.942Z,100.00
2022-08-29T07:13:51.769Z,100.00
2022-08-29T07:16:19.191Z,100.00
2022-08-29T07:18:47.433Z,100.00
2022-08-29T07:21:20.814Z,100.00
2022-08-29T07:23:51.598Z,100.00
2022-08-29T07:26:30.960Z,100.00
2022-08-29T07:29:03.103Z,100.00
2022-08-29T07:31:31.432Z,100.00
2022-08-29T07:34:02.391Z,99.69
2022-08-29T07:36:31.081Z,95.96
2022-08-29T07:38:57.774Z,93.00
2022-08-29T07:41:24.982Z,95.17
2022-08-29T07:43:52.038Z,94.72
2022-08-29T07:46:20.858Z,100.00
2022-08-29T07:48:48.555Z,100.00
2022-08-29T07:51:17.719Z,95.74
2022-08-29T07:53:45.183Z,96.18
2022-08-29T07:56:15.574Z,96.46
2022-08-29T07:58:42.880Z,94.24
2022-08-29T08:01:10.073Z,91.11
2022-08-29T08:03:47.723Z,90.79
2022-08-29T08:06:14.564Z,88.19
2022-08-29T08:08:41.562Z,89.50
2022-08-29T08:11:09.314Z,88.67
2022-08-29T08:13:37.043Z,86.82
2022-08-29T08:16:12.615Z,83.88
2022-08-29T08:18:41.270Z,80.05
2022-08-29T08:21:08.602Z,77.87
2022-08-29T08:23:35.770Z,82.07
2022-08-29T08:26:02.488Z,76.57
2022-08-29T08:28:30.721Z,81.39
2022-08-29T08:31:03.642Z,80.01
2022-08-29T08:33:34.831Z,72.02
2022-08-29T08:36:02.849Z,71.69
2022-08-29T08:38:29.773Z,74.13
2022-08-29T08:41:23.972Z,73.62
2022-08-29T08:44:00.509Z,73.16
2022-08-29T08:46:38.062Z,71.71
2022-08-29T08:49:33.972Z,73.23
2022-08-29T08:52:05.948Z,73.74
2022-08-29T08:54:41.425Z,74.38
2022-08-29T08:57:10.996Z,73.38
2022-08-29T08:59:45.430Z,72.76
2022-08-29T09:02:29.607Z,71.84
2022-08-29T09:05:39.426Z,72.22
2022-08-29T09:08:44.613Z,74.26
2022-08-29T09:11:41.490Z,76.70
2022-08-29T09:14:43.518Z,82.23
2022-08-29T09:17:20.462Z,85.75
2022-08-29T09:19:48.505Z,85.16
2022-08-29T09:22:24.736Z,85.26
2022-08-29T09:25:05.439Z,86.80
2022-08-29T09:27:34.669Z,88.46
2022-08-29T09:30:27.174Z,87.43
2022-08-29T09:32:59.175Z,91.06
2022-08-29T09:35:34.558Z,91.74
2022-08-29T09:38:09.042Z,86.62
2022-08-29T09:40:51.054Z,90.09
2022-08-29T09:43:33.824Z,93.17
2022-08-29T09:46:25.206Z,91.97
2022-08-29T09:48:57.973Z,94.82
2022-08-29T09:51:33.659Z,95.59
2022-08-29T09:54:31.321Z,95.37
2022-08-29T09:57:16.723Z,97.31
2022-08-29T09:59:45.976Z,97.65
2022-08-29T10:02:15.779Z,98.04
2022-08-29T10:04:45.866Z,99.59
2022-08-29T10:07:28.293Z,100.00
2022-08-29T10:10:14.998Z,100.00
2022-08-29T10:12:52.493Z,100.00
2022-08-29T10:15:46.954Z,100.00
2022-08-29T10:18:24.703Z,100.00
2022-08-29T10:21:14.707Z,100.00
2022-08-29T10:24:05.385Z,100.00
2022-08-29T10:26:37.835Z,100.00
2022-08-29T10:29:04.542Z,100.00
2022-08-29T10:31:38.477Z,100.00
2022-08-29T10:34:33.476Z,100.00
2022-08-29T10:37:47.966Z,100.00
2022-08-29T10:40:28.720Z,100.00
2022-08-29T10:43:41.943Z,100.00
2022-08-29T10:46:23.556Z,100.00
2022-08-29T10:48:50.177Z,100.00
2022-08-29T10:51:28.050Z,100.00
2022-08-29T10:54:12.204Z,100.00
2022-08-29T10:56:46.682Z,100.00
2022-08-29T10:59:45.782Z,100.00
2022-08-29T11:02:35.132Z,100.00
2022-08-29T11:05:08.582Z,100.00
2022-08-29T11:07:43.298Z,100.00
2022-08-29T11:10:21.189Z,100.00
2022-08-29T11:13:02.231Z,100.00
2022-08-29T11:15:52.825Z,100.00
2022-08-29T11:18:30.128Z,100.00
2022-08-29T11:21:01.969Z,100.00
2022-08-29T11:23:40.787Z,100.00
2022-08-29T11:26:22.581Z,100.00
2022-08-29T11:29:18.642Z,100.00
2022-08-29T11:32:09.428Z,100.00
2022-08-29T11:35:08.596Z,100.00
2022-08-29T11:37:47.049Z,100.00
2022-08-29T11:43:43.168Z,100.00
2022-08-29T11:46:12.806Z,100.00
2022-08-29T11:48:43.785Z,100.00
2022-08-29T11:51:38.691Z,100.00
2022-08-29T11:54:24.933Z,100.00
2022-08-29T11:57:11.732Z,100.00
2022-08-29T11:59:50.195Z,100.00
2022-08-29T12:02:31.793Z,100.00
2022-08-29T12:05:00.083Z,100.00
2022-08-29T12:07:50.453Z,100.00
2022-08-29T12:10:19.921Z,100.00
2022-08-29T12:12:51.162Z,100.00
2022-08-29T12:15:29.897Z,100.00
2022-08-29T12:18:02.487Z,100.00
2022-08-29T12:20:36.275Z,100.00
2022-08-29T12:23:14.976Z,100.00
2022-08-29T12:26:22.495Z,100.00
2022-08-29T12:29:16.677Z,100.00
2022-08-29T12:32:18.005Z,100.00
2022-08-29T12:35:29.616Z,100.00
2022-08-29T12:38:03.223Z,100.00
2022-08-29T12:40:35.983Z,100.00
2022-08-29T12:43:08.813Z,100.00
2022-08-29T12:45:42.066Z,100.00
2022-08-29T12:48:16.385Z,100.00
2022-08-29T12:50:46.003Z,100.00
2022-08-29T12:53:31.075Z,100.00
2022-08-29T12:56:22.454Z,99.80
2022-08-29T12:59:01.038Z,100.00
2022-08-29T13:01:33.366Z,100.00
2022-08-29T13:04:13.115Z,100.00
2022-08-29T13:07:05.044Z,100.00
2022-08-29T13:09:39.701Z,100.00
2022-08-29T13:12:23.550Z,100.00
2022-08-29T13:14:53.111Z,100.00
2022-08-29T13:17:23.176Z,100.00
2022-08-29T13:20:27.497Z,100.00
2022-08-29T13:23:09.593Z,100.00
2022-08-29T13:25:44.964Z,100.00
2022-08-29T13:28:36.372Z,98.58
2022-08-29T13:31:04.291Z,100.00
2022-08-29T13:33:35.110Z,100.00
2022-08-29T13:36:28.328Z,100.00
2022-08-29T13:39:26.496Z,100.00
2022-08-29T13:42:02.403Z,100.00
2022-08-29T13:44:32.599Z,100.00
2022-08-29T13:47:02.014Z,100.00
2022-08-29T13:49:35.074Z,100.00
2022-08-29T13:52:02.992Z,99.56
2022-08-29T13:54:33.178Z,100.00
2022-08-29T13:57:03.355Z,100.00
2022-08-29T13:59:35.936Z,100.00
2022-08-29T14:02:11.711Z,100.00
2022-08-29T14:04:41.164Z,100.00
2022-08-29T14:07:31.943Z,100.00
2022-08-29T14:09:59.577Z,100.00
2022-08-29T14:12:33.330Z,100.00
2022-08-29T14:15:05.099Z,100.00
2022-08-29T14:17:35.663Z,100.00
2022-08-29T14:20:02.528Z,100.00
2022-08-29T14:22:29.222Z,100.00
2022-08-29T14:24:55.973Z,100.00
2022-08-29T14:27:22.875Z,100.00
2022-08-29T14:29:50.179Z,100.00
2022-08-29T14:32:17.383Z,100.00
2022-08-29T14:34:44.728Z,100.00
2022-08-29T14:37:18.584Z,100.00
2022-08-29T14:39:45.347Z,100.00
2022-08-29T14:42:17.443Z,100.00
2022-08-29T14:44:44.228Z,100.00
2022-08-29T14:47:11.182Z,100.00
2022-08-29T14:49:38.000Z,100.00
2022-08-29T14:52:05.730Z,100.00
2022-08-29T14:54:32.429Z,100.00
2022-08-29T14:56:59.353Z,100.00
2022-08-29T14:59:26.219Z,97.03
2022-08-29T15:01:54.851Z,96.36
2022-08-29T15:04:35.020Z,98.88
2022-08-29T15:07:09.436Z,99.53
2022-08-29T15:09:36.661Z,100.00
2022-08-29T15:12:03.988Z,100.00
2022-08-29T15:14:31.170Z,100.00
2022-08-29T15:16:57.847Z,100.00
2022-08-29T15:20:17.768Z,100.00
2022-08-29T15:22:12.592Z,100.00
2022-08-29T15:24:40.048Z,100.00
2022-08-29T15:27:07.874Z,100.00
2022-08-29T15:29:37.360Z,100.00
2022-08-29T15:32:04.751Z,100.00
2022-08-29T15:34:31.536Z,100.00
2022-08-29T15:36:59.010Z,100.00
2022-08-29T15:39:27.668Z,100.00
2022-08-29T15:41:59.082Z,100.00
2022-08-29T15:44:28.291Z,100.00
2022-08-29T15:46:56.667Z,100.00
2022-08-29T15:49:25.353Z,100.00
2022-08-29T15:51:53.128Z,100.00
2022-08-29T15:54:20.195Z,100.00
2022-08-29T15:56:47.014Z,100.00
2022-08-29T15:59:14.302Z,100.00
2022-08-29T16:01:44.903Z,100.00
2022-08-29T16:04:12.487Z,100.00
2022-08-29T16:06:39.467Z,100.00
2022-08-29T16:09:14.912Z,100.00
2022-08-29T16:11:44.538Z,100.00
2022-08-29T16:14:57.498Z,100.00
2022-08-29T16:16:59.107Z,100.00
2022-08-29T16:19:25.785Z,100.00
2022-08-29T16:21:52.950Z,100.00
2022-08-29T16:24:21.944Z,100.00
2022-08-29T16:26:48.837Z,100.00
2022-08-29T16:29:18.059Z,100.00
2022-08-29T16:31:54.381Z,100.00
2022-08-29T16:34:25.771Z,100.00
2022-08-29T16:36:59.938Z,100.00
2022-08-29T16:39:26.842Z,100.00
2022-08-29T16:41:53.649Z,100.00
2022-08-29T16:44:21.160Z,100.00
2022-08-29T16:46:47.923Z,100.00
2022-08-29T16:49:14.744Z,100.00
2022-08-29T16:51:41.475Z,100.00
2022-08-29T16:54:08.537Z,100.00
2022-08-29T16:56:35.442Z,100.00
2022-08-29T16:59:03.131Z,100.00
2022-08-29T17:01:33.351Z,100.00
2022-08-29T17:04:01.832Z,100.00
2022-08-29T17:06:29.778Z,100.00
2022-08-29T17:08:56.644Z,100.00
2022-08-29T17:11:23.797Z,100.00
2022-08-29T17:13:50.876Z,100.00
2022-08-29T17:16:18.463Z,100.00
2022-08-29T17:18:46.576Z,100.00
2022-08-29T17:21:13.999Z,100.00
2022-08-29T17:23:41.478Z,100.00
2022-08-29T17:26:10.762Z,100.00
2022-08-29T17:28:39.735Z,100.00
2022-08-29T17:31:07.465Z,100.00
2022-08-29T17:33:34.798Z,100.00
2022-08-29T17:36:03.089Z,100.00
2022-08-29T17:38:31.178Z,100.00
2022-08-29T17:41:02.885Z,100.00
2022-08-29T17:43:42.375Z,100.00
2022-08-29T17:46:09.194Z,100.00
2022-08-29T17:48:35.967Z,100.00
2022-08-29T17:51:02.644Z,100.00
2022-08-29T17:53:30.066Z,100.00
2022-08-29T17:55:56.810Z,100.00
2022-08-29T17:58:23.577Z,100.00
2022-08-29T18:00:50.548Z,100.00
2022-08-29T18:03:18.389Z,100.00
2022-08-29T18:05:45.800Z,100.00
2022-08-29T18:08:12.595Z,100.00
2022-08-29T18:10:39.963Z,100.00
2022-08-29T18:13:06.747Z,100.00
2022-08-29T18:15:35.505Z,100.00
2022-08-29T18:18:02.748Z,100.00
2022-08-29T18:20:30.039Z,100.00
2022-08-29T18:22:58.451Z,100.00
2022-08-29T18:25:25.228Z,100.00
2022-08-29T18:27:51.960Z,100.00
2022-08-29T18:30:18.882Z,100.00
2022-08-29T18:32:45.566Z,100.00
2022-08-29T18:35:12.521Z,100.00
2022-08-29T18:37:39.661Z,100.00
2022-08-29T18:40:07.718Z,100.00
2022-08-29T18:42:41.026Z,100.00
2022-08-29T18:45:09.567Z,100.00
2022-08-29T18:47:37.209Z,100.00
2022-08-29T18:50:24.919Z,100.00
2022-08-29T18:52:53.068Z,100.00
2022-08-29T18:55:20.527Z,100.00
2022-08-29T18:57:48.340Z,100.00
2022-08-29T19:00:16.133Z,100.00
2022-08-29T19:02:43.312Z,100.00
2022-08-29T19:05:10.170Z,100.00
2022-08-29T19:07:37.161Z,100.00
2022-08-29T19:10:05.864Z,100.00
2022-08-29T19:12:32.613Z,100.00
2022-08-29T19:15:00.262Z,100.00
2022-08-29T19:17:27.080Z,100.00
2022-08-29T19:20:12.502Z,100.00
2022-08-29T19:22:39.426Z,100.00
2022-08-29T19:25:08.894Z,100.00
2022-08-29T19:27:43.755Z,100.00
2022-08-29T19:30:13.584Z,100.00
2022-08-29T19:32:40.822Z,100.00
2022-08-29T19:35:11.130Z,100.00
2022-08-29T19:37:39.885Z,100.00
2022-08-29T19:40:08.631Z,100.00
2022-08-29T19:42:35.450Z,100.00
2022-08-29T19:45:03.955Z,100.00
2022-08-29T19:47:31.398Z,100.00
2022-08-29T19:49:58.152Z,100.00
2022-08-29T19:52:25.017Z,100.00
2022-08-29T19:54:53.732Z,100.00
2022-08-29T19:57:20.402Z,100.00
2022-08-29T19:59:47.081Z,100.00
2022-08-29T20:02:15.662Z,100.00
2022-08-29T20:04:42.612Z,100.00
2022-08-29T20:07:09.381Z,100.00
2022-08-29T20:09:36.521Z,100.00
2022-08-29T20:12:05.545Z,100.00
2022-08-29T20:14:32.734Z,100.00
2022-08-29T20:17:01.851Z,100.00
2022-08-29T20:19:31.700Z,100.00
2022-08-29T20:21:58.523Z,100.00
2022-08-29T20:24:25.513Z,100.00
2022-08-29T20:26:52.386Z,100.00
2022-08-29T20:29:22.144Z,100.00
2022-08-29T20:31:49.749Z,100.00
2022-08-29T20:34:16.865Z,100.00
2022-08-29T20:37:02.482Z,100.00
2022-08-29T20:39:29.800Z,100.00
2022-08-29T20:41:59.413Z,100.00
2022-08-29T20:44:33.832Z,100.00
2022-08-29T20:47:01.079Z,100.00
2022-08-29T20:49:27.945Z,100.00
2022-08-29T20:51:54.636Z,100.00
2022-08-29T20:54:24.003Z,100.00
2022-08-29T20:56:52.222Z,100.00
2022-08-29T20:59:18.982Z,100.00
2022-08-29T21:01:46.374Z,100.00
2022-08-29T21:04:32.492Z,100.00
2022-08-29T21:07:04.192Z,100.00
2022-08-29T21:09:31.563Z,100.00
2022-08-29T21:11:58.750Z,100.00
2022-08-29T21:14:27.467Z,100.00
2022-08-29T21:16:56.924Z,100.00
2022-08-29T21:19:27.372Z,100.00
2022-08-29T21:21:54.291Z,100.00
2022-08-29T21:24:21.033Z,100.00
2022-08-29T21:26:47.914Z,100.00
2022-08-29T21:29:14.943Z,100.00
2022-08-29T21:31:41.743Z,100.00
2022-08-29T21:34:10.784Z,100.00
2022-08-29T21:36:39.084Z,100.00
2022-08-29T21:39:08.597Z,100.00
2022-08-29T21:41:39.941Z,100.00
2022-08-29T21:44:07.273Z,100.00
2022-08-29T21:46:38.439Z,100.00
2022-08-29T21:49:06.955Z,100.00
2022-08-29T21:51:35.240Z,100.00
2022-08-29T21:54:02.560Z,100.00
2022-08-29T21:56:31.669Z,100.00
2022-08-29T21:58:59.144Z,100.00
2022-08-29T22:01:30.148Z,100.00
2022-08-29T22:03:58.973Z,100.00
2022-08-29T22:06:27.788Z,100.00
2022-08-29T22:08:55.661Z,100.00
2022-08-29T22:11:37.045Z,100.00
2022-08-29T22:14:05.325Z,100.00
2022-08-29T22:16:32.358Z,100.00
2022-08-29T22:19:01.312Z,100.00
2022-08-29T22:21:32.489Z,100.00
2022-08-29T22:23:59.488Z,100.00
2022-08-29T22:26:26.422Z,100.00
2022-08-29T22:28:53.128Z,100.00
2022-08-29T22:31:20.427Z,100.00
2022-08-29T22:33:47.867Z,100.00
2022-08-29T22:36:16.001Z,100.00
2022-08-29T22:38:45.475Z,100.00
2022-08-29T22:41:15.291Z,100.00
2022-08-29T22:43:45.082Z,100.00
2022-08-29T22:46:18.725Z,100.00
2022-08-29T22:48:45.553Z,100.00
2022-08-29T22:51:13.543Z,100.00
2022-08-29T22:53:41.340Z,100.00
2022-08-29T22:56:08.903Z,100.00
2022-08-29T22:58:36.651Z,100.00
2022-08-29T23:01:04.508Z,100.00
2022-08-29T23:03:32.250Z,100.00
2022-08-29T23:05:59.706Z,100.00
2022-08-29T23:08:26.552Z,100.00
2022-08-29T23:10:54.480Z,100.00
2022-08-29T23:13:21.815Z,100.00
2022-08-29T23:15:48.713Z,100.00
2022-08-29T23:18:15.441Z,100.00
2022-08-29T23:20:42.154Z,100.00
2022-08-29T23:23:12.845Z,100.00
2022-08-29T23:25:39.530Z,100.00
2022-08-29T23:28:06.212Z,100.00
2022-08-29T23:30:33.021Z,100.00
2022-08-29T23:33:00.885Z,100.00
2022-08-29T23:35:27.673Z,100.00
2022-08-29T23:37:54.543Z,100.00
2022-08-29T23:40:21.665Z,100.00
2022-08-29T23:42:48.957Z,100.00
2022-08-29T23:45:15.841Z,100.00
2022-08-29T23:47:43.088Z,100.00
2022-08-29T23:50:12.693Z,100.00
2022-08-29T23:52:39.366Z,100.00
2022-08-29T23:55:07.339Z,100.00
2022-08-29T23:57:35.341Z,100.00
